Time;durP1;ratioP1;P1;durP2;ratioP2;P2;SDS_P1;SDS_P2;PMS_P1;PMS_P2;Temp;Humidity;BMP_temperature;BMP_pressure;BME280_temperature;BME280_humidity;BME280_pressure;Samples;Min_cycle;Max_cycle;Signal;HPM_P1;HPM_P2
2021/10/22 00:00:45;;;;;;;1999.90;999.90;;;;;;;5.56;94.13;101577.22;5004500;28;20474;-94
2021/10/22 00:03:11;;;;;;;1999.90;999.90;;;;;;;5.80;94.86;101617.13;4998619;28;20030;-94
2021/10/22 00:05:37;;;;;;;7.32;1.55;;;;;;;5.75;95.34;101614.81;5005051;28;20620;-95
2021/10/22 00:08:03;;;;;;;4.82;1.83;;;;;;;5.79;95.81;101626.09;5001470;28;20046;-93
2021/10/22 00:10:30;;;;;;;5.75;2.03;;;;;;;5.61;96.11;101575.91;5017717;28;20060;-93
2021/10/22 00:12:55;;;;;;;7.30;1.70;;;;;;;5.80;96.37;101601.13;5002253;28;20120;-94
2021/10/22 00:15:21;;;;;;;7.28;1.10;;;;;;;6.05;96.60;101622.19;5018535;28;20045;-94
2021/10/22 00:17:47;;;;;;;3.85;1.13;;;;;;;5.99;96.85;101590.66;5002973;28;20041;-94
2021/10/22 00:20:13;;;;;;;3.20;1.13;;;;;;;6.11;96.92;101595.00;5012034;28;20079;-94
2021/10/22 00:22:39;;;;;;;3.60;1.15;;;;;;;6.33;96.91;101623.44;5020310;28;20080;-93
2021/10/22 00:25:06;;;;;;;22.40;2.08;;;;;;;6.29;97.07;101597.13;5003604;28;20116;-94
2021/10/22 00:27:34;;;;;;;3.60;1.33;;;;;;;6.41;97.26;101580.06;4998966;28;20449;-94
2021/10/22 00:30:00;;;;;;;2.28;1.25;;;;;;;6.77;96.87;101602.84;5019944;28;20060;-95
2021/10/22 00:32:26;;;;;;;5.32;1.08;;;;;;;6.91;96.13;101600.81;5006845;28;20467;-93
2021/10/22 00:34:52;;;;;;;7.13;2.55;;;;;;;7.07;95.84;101595.00;5011705;28;20084;-93
2021/10/22 00:37:18;;;;;;;2.78;1.17;;;;;;;7.12;95.19;101574.91;4987738;28;20031;-94
2021/10/22 00:39:43;;;;;;;4.00;1.42;;;;;;;7.29;94.77;101569.91;5003131;28;20037;-94
2021/10/22 00:42:11;;;;;;;6.70;1.30;;;;;;;7.64;94.98;101606.91;5018022;28;20033;-94
2021/10/22 00:44:39;;;;;;;3.42;1.00;;;;;;;7.53;94.41;101582.94;5023328;28;20021;-93
2021/10/22 00:47:06;;;;;;;3.13;1.10;;;;;;;7.48;94.55;101564.63;5007043;28;20091;-92
2021/10/22 00:49:32;;;;;;;4.22;1.20;;;;;;;7.60;94.86;101578.75;5000296;28;20041;-92
2021/10/22 00:52:01;;;;;;;6.95;1.30;;;;;;;7.57;95.24;101587.03;5010566;28;20057;-93
2021/10/22 00:54:27;;;;;;;2.22;0.90;;;;;;;7.53;95.17;101574.91;5024987;28;20037;-93
2021/10/22 00:56:54;;;;;;;6.50;0.90;;;;;;;7.67;94.91;101602.16;5002988;28;20044;-94
2021/10/22 00:59:21;;;;;;;5.68;0.98;;;;;;;7.56;95.32;101566.63;5008531;28;20033;-92
2021/10/22 01:01:47;;;;;;;3.22;0.73;;;;;;;7.50;95.86;101541.25;5025881;28;20379;-92
2021/10/22 01:04:13;;;;;;;6.38;1.20;;;;;;;7.67;95.62;101570.03;5016374;28;20032;-91
2021/10/22 01:06:41;;;;;;;5.35;1.08;;;;;;;7.88;95.38;101593.19;5003240;28;20033;-94
2021/10/22 01:09:08;;;;;;;5.78;1.00;;;;;;;7.82;94.93;101556.25;4986199;28;20048;-93
2021/10/22 01:11:35;;;;;;;4.55;1.10;;;;;;;7.78;95.04;101544.97;5003360;28;20068;-92
2021/10/22 01:14:05;;;;;;;8.38;1.17;;;;;;;8.02;94.40;101568.69;4995970;28;20030;-92
2021/10/22 01:16:32;;;;;;;5.30;0.98;;;;;;;8.06;94.14;101562.06;5005550;28;20034;-93
2021/10/22 01:18:58;;;;;;;7.03;1.00;;;;;;;7.97;94.76;101554.88;4997359;28;20045;-92
2021/10/22 01:21:26;;;;;;;6.10;1.27;;;;;;;8.08;94.37;101561.94;5006321;28;20091;-93
2021/10/22 01:23:51;;;;;;;9.00;1.30;;;;;;;8.12;94.40;101569.56;5022219;28;20103;-93
2021/10/22 01:26:19;;;;;;;5.07;1.13;;;;;;;8.22;94.80;101576.72;5007191;28;20029;-93
2021/10/22 01:28:47;;;;;;;3.22;1.00;;;;;;;8.24;94.53;101583.66;5005538;28;20045;-92
2021/10/22 01:31:13;;;;;;;11.65;1.20;;;;;;;8.14;95.48;101556.00;5009261;28;20057;-92
2021/10/22 01:33:40;;;;;;;6.55;0.93;;;;;;;8.02;94.97;101555.31;5007821;28;20059;-92
2021/10/22 01:36:06;;;;;;;5.70;1.23;;;;;;;8.27;95.55;101594.06;5007201;28;20067;-93
2021/10/22 01:38:32;;;;;;;6.28;1.00;;;;;;;8.18;95.51;101567.28;4999044;28;20085;-91
2021/10/22 01:40:58;;;;;;;6.95;1.20;;;;;;;8.08;95.96;101538.66;5021323;28;20044;-92
2021/10/22 01:43:25;;;;;;;4.88;1.17;;;;;;;8.09;96.62;101544.84;5049058;28;20461;-92
2021/10/22 01:45:57;;;;;;;8.40;1.00;;;;;;;8.21;96.28;101565.19;5031659;28;20122;-93
2021/10/22 01:48:23;;;;;;;9.70;1.27;;;;;;;7.98;96.37;101528.94;5015425;28;20026;-92
2021/10/22 01:50:48;;;;;;;3.40;1.02;;;;;;;8.06;96.23;101547.81;5005485;28;20049;-92
2021/10/22 01:53:18;;;;;;;4.35;1.00;;;;;;;8.21;96.62;101575.91;5003906;28;20037;-91
2021/10/22 01:55:44;;;;;;;3.70;1.00;;;;;;;8.22;96.16;101574.06;5003970;28;20037;-92
2021/10/22 01:58:10;;;;;;;6.60;1.08;;;;;;;7.98;96.30;101545.84;5004300;28;20414;-94
2021/10/22 02:00:37;;;;;;;6.07;1.25;;;;;;;8.14;95.86;101564.88;5035727;28;20048;-94
2021/10/22 02:03:03;;;;;;;9.23;1.17;;;;;;;8.03;96.10;101534.72;5005612;28;20072;-94
2021/10/22 02:05:29;;;;;;;9.35;1.40;;;;;;;8.09;95.54;101539.50;5021760;28;20041;-94
2021/10/22 02:07:57;;;;;;;6.85;1.50;;;;;;;8.22;95.40;101564.19;5023765;28;20041;-93
2021/10/22 02:10:23;;;;;;;4.65;1.30;;;;;;;8.13;95.48;101539.09;5022554;28;20033;-93
2021/10/22 02:12:49;;;;;;;8.25;1.25;;;;;;;8.15;95.08;101537.13;4987004;28;20056;-93
2021/10/22 02:15:15;;;;;;;7.10;1.33;;;;;;;8.23;95.23;101555.16;5003704;28;20061;-95
2021/10/22 02:17:40;;;;;;;6.90;1.20;;;;;;;8.31;95.60;101566.03;5006833;28;20037;-93
2021/10/22 02:20:07;;;;;;;6.38;1.05;;;;;;;8.27;94.74;101567.28;5004435;28;20029;-92
2021/10/22 02:22:33;;;;;;;6.22;1.17;;;;;;;8.14;94.48;101537.25;4998443;28;20041;-93
2021/10/22 02:24:58;;;;;;;7.35;1.33;;;;;;;8.38;94.16;101567.13;5005911;28;20380;-92
2021/10/22 02:27:24;;;;;;;7.68;1.30;;;;;;;8.19;94.56;101532.31;4990270;28;20091;-93
2021/10/22 02:29:50;;;;;;;3.15;1.13;;;;;;;8.28;94.12;101552.06;4989593;28;20562;-92
2021/10/22 02:32:16;;;;;;;2.83;1.80;;;;;;;8.23;94.15;101539.09;5004593;28;20025;-94
2021/10/22 02:34:44;;;;;;;5.38;1.00;;;;;;;8.22;94.08;101545.44;5007741;28;20037;-92
2021/10/22 02:37:09;;;;;;;6.40;1.13;;;;;;;8.27;94.28;101545.84;5002380;28;20032;-92
2021/10/22 02:39:36;;;;;;;9.52;0.90;;;;;;;8.12;94.89;101520.47;4995397;28;20033;-93
2021/10/22 02:42:03;;;;;;;5.00;1.00;;;;;;;8.36;94.73;101552.19;5004884;28;20143;-92
2021/10/22 02:44:29;;;;;;;11.32;1.35;;;;;;;8.28;94.26;101541.31;4992468;28;20791;-93
2021/10/22 02:46:57;;;;;;;4.85;1.33;;;;;;;8.37;94.26;101554.72;5000266;28;20041;-94
2021/10/22 02:49:23;;;;;;;13.20;1.60;;;;;;;8.24;93.99;101518.50;4988499;28;20446;-92
2021/10/22 02:51:49;;;;;;;7.95;1.20;;;;;;;8.34;93.73;101532.75;5002360;28;20029;-93
2021/10/22 02:54:15;;;;;;;2.03;0.77;;;;;;;8.45;93.36;101547.84;4993221;28;20121;-94
2021/10/22 02:56:43;;;;;;;5.45;1.17;;;;;;;8.41;92.46;101525.00;5000956;28;20057;-92
2021/10/22 02:59:12;;;;;;;5.38;1.23;;;;;;;8.51;91.35;101531.19;5010704;28;20632;-93
2021/10/22 03:01:38;;;;;;;7.93;1.58;;;;;;;8.57;90.63;101539.53;5000259;28;20030;-93
2021/10/22 03:04:04;;;;;;;11.95;2.40;;;;;;;8.60;89.75;101538.41;4987692;28;20042;-93
2021/10/22 03:06:29;;;;;;;8.85;1.10;;;;;;;8.70;88.92;101544.56;5028633;28;20084;-94
2021/10/22 03:08:56;;;;;;;3.55;1.02;;;;;;;8.59;88.38;101529.47;5010251;28;20028;-92
2021/10/22 03:11:22;;;;;;;6.40;1.20;;;;;;;8.60;87.67;101519.63;5001605;28;20242;-92
2021/10/22 03:13:47;;;;;;;7.30;1.20;;;;;;;8.68;87.29;101532.28;5001205;28;20567;-93
2021/10/22 03:16:13;;;;;;;4.93;1.48;;;;;;;8.71;86.47;101534.69;5002376;28;20045;-92
2021/10/22 03:18:40;;;;;;;4.13;1.30;;;;;;;8.75;85.56;101528.03;4995019;28;20071;-93
2021/10/22 03:21:06;;;;;;;8.70;1.40;;;;;;;8.80;85.55;101540.03;4985098;28;20136;-92
2021/10/22 03:23:31;;;;;;;5.30;1.17;;;;;;;8.80;85.34;101534.66;5000414;28;20039;-92
2021/10/22 03:25:57;;;;;;;8.48;1.27;;;;;;;8.90;85.29;101555.25;5003214;28;20041;-92
2021/10/22 03:28:23;;;;;;;6.60;1.42;;;;;;;8.93;84.47;101557.63;4998990;28;20473;-94
2021/10/22 03:30:51;;;;;;;7.20;1.20;;;;;;;8.69;84.47;101509.88;5003949;28;20127;-93
2021/10/22 03:33:17;;;;;;;9.40;1.33;;;;;;;8.71;84.23;101519.44;5017556;28;20029;-93
2021/10/22 03:35:43;;;;;;;8.60;1.02;;;;;;;8.81;83.79;101522.09;5003372;28;20029;-93
2021/10/22 03:38:09;;;;;;;3.33;1.00;;;;;;;8.91;83.23;101543.53;5018870;28;20120;-95
2021/10/22 03:40:35;;;;;;;7.50;1.45;;;;;;;8.85;83.27;101528.03;5001714;28;20120;-94
2021/10/22 03:43:01;;;;;;;9.32;1.30;;;;;;;9.01;82.70;101563.13;5018037;28;20065;-93
2021/10/22 03:45:29;;;;;;;7.80;1.10;;;;;;;8.90;82.33;101542.69;4999830;28;20037;-95
2021/10/22 03:47:55;;;;;;;9.43;1.40;;;;;;;8.90;82.23;101541.84;5002619;28;20065;-93
2021/10/22 03:50:24;;;;;;;4.60;1.10;;;;;;;8.77;81.90;101521.53;5019128;28;20040;-94
2021/10/22 03:52:51;;;;;;;3.63;0.88;;;;;;;9.02;81.59;101567.47;5005096;28;20471;-94
2021/10/22 03:55:23;;;;;;;6.13;1.10;;;;;;;8.98;81.48;101552.69;5013119;28;20398;-93
2021/10/22 03:57:49;;;;;;;7.93;0.95;;;;;;;8.95;81.09;101545.78;4996528;28;20037;-91
2021/10/22 04:00:15;;;;;;;6.97;1.48;;;;;;;8.96;81.14;101550.13;4996631;28;20479;-95
2021/10/22 04:02:41;;;;;;;7.10;1.15;;;;;;;8.91;81.27;101541.69;5020353;28;20088;-94
2021/10/22 04:05:09;;;;;;;6.65;1.48;;;;;;;8.89;80.91;101546.38;5002553;28;20542;-92
2021/10/22 04:07:35;;;;;;;7.78;1.58;;;;;;;8.97;81.21;101559.91;5007218;28;20041;-94
2021/10/22 04:10:08;;;;;;;4.57;1.20;;;;;;;8.92;81.68;101554.13;5008805;28;20037;-93
2021/10/22 04:12:34;;;;;;;5.22;1.05;;;;;;;9.06;81.33;101576.94;4992612;28;20371;-92
2021/10/22 04:15:03;;;;;;;6.93;1.35;;;;;;;9.02;81.40;101568.34;5002565;28;20047;-92
2021/10/22 04:17:29;;;;;;;8.60;2.55;;;;;;;8.94;81.06;101546.75;4998951;28;20087;-93
2021/10/22 04:19:55;;;;;;;7.47;1.80;;;;;;;8.87;80.68;101529.56;5009521;28;20029;-93
2021/10/22 04:22:21;;;;;;;5.35;1.27;;;;;;;9.10;80.87;101561.38;5005726;28;20028;-94
2021/10/22 04:24:47;;;;;;;6.10;1.23;;;;;;;8.98;81.37;101550.00;5003718;28;20463;-92
2021/10/22 04:27:13;;;;;;;7.80;1.50;;;;;;;9.03;80.75;101559.31;5006843;28;20368;-92
2021/10/22 04:29:39;;;;;;;8.32;1.30;;;;;;;9.08;80.90;101558.03;5010524;28;20038;-93
2021/10/22 04:32:05;;;;;;;7.47;1.77;;;;;;;9.18;80.81;101572.22;5002630;28;20717;-93
2021/10/22 04:34:31;;;;;;;1028.20;233.55;;;;;;;9.20;80.70;101581.00;5010054;28;20541;-92
2021/10/22 04:37:32;;;;;;;1999.90;999.90;;;;;;;8.97;80.73;101537.56;5005699;28;20029;-95
2021/10/22 04:42:40;;;;;;;1999.90;999.90;;;;;;;9.10;80.81;101559.53;5025781;28;20041;-94
2021/10/22 04:45:08;;;;;;;465.80;80.85;;;;;;;9.13;81.72;101574.50;5001805;28;20124;-93
2021/10/22 04:47:33;;;;;;;1999.90;999.90;;;;;;;8.85;81.64;101544.94;5031190;28;20176;-94
2021/10/22 04:50:01;;;;;;;1999.90;999.90;;;;;;;8.87;82.30;101544.81;5025596;28;20132;-94
2021/10/22 04:52:26;;;;;;;1999.90;999.90;;;;;;;8.94;82.27;101567.38;4996245;28;20033;-95
2021/10/22 04:54:52;;;;;;;1999.90;999.90;;;;;;;9.00;82.72;101578.38;4994556;28;20061;-93
2021/10/22 04:57:18;;;;;;;1999.90;999.90;;;;;;;8.87;83.13;101560.91;5012426;28;20065;-92
2021/10/22 04:59:44;;;;;;;1999.90;999.90;;;;;;;8.95;84.00;101582.50;5017095;28;21724;-94
2021/10/22 05:02:09;;;;;;;1999.90;999.90;;;;;;;8.82;83.98;101553.28;5007962;28;20029;-93
2021/10/22 05:04:35;;;;;;;1999.90;999.90;;;;;;;8.85;83.65;101560.19;5012622;28;20034;-93
2021/10/22 05:07:01;;;;;;;1999.90;999.90;;;;;;;8.97;83.33;101576.00;5036129;28;20033;-93
2021/10/22 05:09:27;;;;;;;1999.90;999.90;;;;;;;9.06;82.71;101582.31;5034596;28;20044;-94
2021/10/22 05:11:53;;;;;;;1999.90;999.90;;;;;;;9.02;82.72;101580.91;5014653;28;20041;-94
2021/10/22 05:14:19;;;;;;;1999.90;999.90;;;;;;;8.98;83.05;101576.84;5028536;28;20037;-93
2021/10/22 05:16:45;;;;;;;1999.90;999.90;;;;;;;9.05;82.61;101595.84;5008631;28;20045;-93
2021/10/22 05:19:10;;;;;;;1999.90;999.90;;;;;;;9.01;82.67;101587.25;4992955;28;20028;-94
2021/10/22 05:21:36;;;;;;;1999.90;999.90;;;;;;;8.89;82.61;101566.94;4995679;28;20525;-93
2021/10/22 05:24:02;;;;;;;1999.90;999.90;;;;;;;9.02;82.36;101602.34;4993240;28;20056;-95
2021/10/22 05:26:28;;;;;;;1999.90;999.90;;;;;;;9.05;82.54;101611.94;5010877;28;20033;-94
2021/10/22 05:28:54;;;;;;;1999.90;999.90;;;;;;;8.73;82.61;101571.09;4997414;28;21434;-93
2021/10/22 05:31:20;;;;;;;1999.90;999.90;;;;;;;8.97;82.85;101613.53;5015640;28;20494;-95
2021/10/22 05:33:45;;;;;;;1999.90;999.90;;;;;;;8.78;82.86;101582.22;5007971;28;20033;-93
2021/10/22 05:36:11;;;;;;;1999.90;999.90;;;;;;;8.70;82.97;101573.22;5011304;28;20051;-93
2021/10/22 05:38:40;;;;;;;1999.90;999.90;;;;;;;8.76;83.23;101586.06;4998571;28;20037;-93
2021/10/22 05:41:06;;;;;;;1999.90;999.90;;;;;;;8.90;83.39;101617.78;4993909;28;20105;-93
2021/10/22 05:43:31;;;;;;;1999.90;999.90;;;;;;;8.80;83.26;101607.06;4991457;28;20551;-93
2021/10/22 05:45:57;;;;;;;1999.90;999.90;;;;;;;8.73;83.13;101589.88;4996897;28;20037;-93
2021/10/22 05:48:23;;;;;;;1999.90;999.90;;;;;;;8.73;83.75;101589.00;5005861;28;20481;-93
2021/10/22 05:50:51;;;;;;;1999.90;999.90;;;;;;;8.74;83.38;101594.22;4993648;28;20037;-93
2021/10/22 05:53:17;;;;;;;1999.90;999.90;;;;;;;8.73;83.03;101579.16;5021220;28;20049;-94
2021/10/22 05:55:43;;;;;;;1999.90;999.90;;;;;;;8.92;83.03;101606.91;5010729;28;20068;-93
2021/10/22 05:58:08;;;;;;;1999.90;999.90;;;;;;;8.76;82.13;101570.81;4992582;28;20029;-92
2021/10/22 06:00:34;;;;;;;1999.90;999.90;;;;;;;8.97;82.34;101608.19;5004757;28;20033;-93
2021/10/22 06:03:00;;;;;;;1999.90;999.90;;;;;;;9.02;82.45;101600.53;5010660;28;20079;-93
2021/10/22 06:05:26;;;;;;;1999.90;999.90;;;;;;;9.05;82.39;101610.13;5008499;28;20049;-95
2021/10/22 06:07:52;;;;;;;1999.90;999.90;;;;;;;9.03;82.65;101612.94;5011735;28;20082;-93
2021/10/22 06:10:17;;;;;;;1999.90;999.90;;;;;;;9.01;82.87;101603.34;5012120;28;20125;-93
2021/10/22 06:12:43;;;;;;;1999.90;999.90;;;;;;;8.88;82.95;101586.72;5013581;28;20022;-93
2021/10/22 06:15:09;;;;;;;1999.90;999.90;;;;;;;8.95;82.71;101585.16;4997589;28;20069;-93
2021/10/22 06:17:35;;;;;;;1999.90;999.90;;;;;;;8.94;82.52;101589.66;5007216;28;20050;-95
2021/10/22 06:20:07;;;;;;;1999.90;999.90;;;;;;;9.01;82.72;101603.34;5010243;28;20485;-93
2021/10/22 06:22:38;;;;;;;1999.90;999.90;;;;;;;8.85;83.09;101582.50;5007421;28;20501;-93
2021/10/22 06:25:07;;;;;;;1999.90;999.90;;;;;;;9.01;82.29;101611.41;4996381;28;20128;-94
2021/10/22 06:27:33;;;;;;;1999.90;999.90;;;;;;;8.86;82.74;101592.22;5023263;28;20148;-94
2021/10/22 06:29:59;;;;;;;1999.90;999.90;;;;;;;8.84;82.90;101585.31;4990197;28;20125;-93
2021/10/22 06:32:25;;;;;;;1999.90;999.90;;;;;;;8.84;83.34;101590.69;5013740;28;20481;-92
2021/10/22 06:34:51;;;;;;;1999.90;999.90;;;;;;;8.74;83.08;101575.47;4997694;28;20112;-94
2021/10/22 06:37:17;;;;;;;1999.90;999.90;;;;;;;8.83;82.50;101589.00;5018836;28;20111;-92
2021/10/22 06:39:42;;;;;;;1999.90;999.90;;;;;;;8.85;82.55;101598.59;4997963;28;20650;-93
2021/10/22 06:42:10;;;;;;;1999.90;999.90;;;;;;;8.88;82.64;101600.13;5015245;28;20037;-93
2021/10/22 06:44:41;;;;;;;1999.90;999.90;;;;;;;8.79;82.63;101583.94;4996332;28;20096;-91
2021/10/22 06:47:07;;;;;;;1999.90;999.90;;;;;;;8.95;81.88;101603.94;5016338;28;20063;-94
2021/10/22 06:49:33;;;;;;;1999.90;999.90;;;;;;;9.03;82.11;101604.06;4999578;28;20042;-92
2021/10/22 06:52:03;;;;;;;1999.90;999.90;;;;;;;9.12;82.28;101605.03;5031303;28;20048;-93
2021/10/22 06:54:29;;;;;;;1999.90;999.90;;;;;;;9.00;82.62;101597.16;5012578;28;20198;-92
2021/10/22 06:56:54;;;;;;;1999.90;999.90;;;;;;;9.02;83.32;101608.59;5031331;28;20077;-93
2021/10/22 06:59:20;;;;;;;1999.90;999.90;;;;;;;8.91;83.67;101603.38;5026530;28;20044;-92
2021/10/22 07:01:46;;;;;;;1999.90;999.90;;;;;;;8.89;84.56;101601.81;5013471;28;20056;-93
2021/10/22 07:04:13;;;;;;;1999.90;999.90;;;;;;;8.82;85.31;101598.88;5003193;28;20494;-93
2021/10/22 07:09:24;;;;;;;1999.90;999.90;;;;;;;8.91;86.59;101629.34;5031803;28;20045;-91
2021/10/22 07:11:50;;;;;;;1999.90;999.90;;;;;;;8.83;87.35;101618.50;5019585;28;20029;-93
2021/10/22 07:14:16;;;;;;;1999.90;999.90;;;;;;;8.69;87.83;101599.19;5006018;28;20026;-92
2021/10/22 07:16:42;;;;;;;1999.90;999.90;;;;;;;8.66;87.94;101609.34;5005964;28;20129;-92
2021/10/22 07:19:08;;;;;;;1999.90;999.90;;;;;;;8.85;88.83;101638.81;5021270;28;20403;-93
2021/10/22 07:21:38;;;;;;;1999.90;999.90;;;;;;;8.63;89.41;101602.44;5014735;28;20037;-93
2021/10/22 07:24:11;;;;;;;1999.90;999.90;;;;;;;8.73;90.02;101623.84;5006201;28;20042;-92
2021/10/22 07:26:37;;;;;;;1999.90;999.90;;;;;;;8.79;90.45;101634.88;5018229;28;20072;-92
2021/10/22 07:29:03;;;;;;;1999.90;999.90;;;;;;;8.71;91.05;101623.19;5000454;28;20473;-94
2021/10/22 07:31:32;;;;;;;1999.90;999.90;;;;;;;8.64;91.04;101608.66;5007721;28;20490;-92
2021/10/22 07:33:58;;;;;;;1999.90;999.90;;;;;;;8.67;91.63;101611.88;5029493;28;20029;-93
2021/10/22 07:36:24;;;;;;;1999.90;999.90;;;;;;;8.69;91.41;101615.25;5009361;28;20068;-93
2021/10/22 07:38:50;;;;;;;1999.90;999.90;;;;;;;8.84;92.01;101644.31;5030681;28;20059;-93
2021/10/22 07:41:16;;;;;;;1999.90;999.90;;;;;;;8.72;92.01;101630.22;4998760;28;20093;-94
2021/10/22 07:43:43;;;;;;;1999.90;999.90;;;;;;;8.72;91.85;101630.22;5001614;28;20042;-91
2021/10/22 07:46:09;;;;;;;1999.90;999.90;;;;;;;8.79;92.57;101639.41;5005266;28;20506;-92
2021/10/22 07:48:36;;;;;;;1999.90;999.90;;;;;;;8.87;92.54;101663.66;5009987;28;20059;-94
2021/10/22 07:51:05;;;;;;;4.30;1.13;;;;;;;8.69;92.59;101638.56;5002717;28;20045;-94
2021/10/22 07:53:30;;;;;;;8.02;1.92;;;;;;;8.65;93.10;101639.81;5004859;28;20038;-95
2021/10/22 07:55:56;;;;;;;7.45;1.45;;;;;;;8.79;92.77;101659.00;5019921;28;20033;-94
2021/10/22 07:58:22;;;;;;;6.60;1.88;;;;;;;8.79;93.27;101650.13;4991708;28;20061;-94
2021/10/22 08:00:48;;;;;;;9.98;1.92;;;;;;;8.74;92.44;101639.81;5017473;28;20029;-94
2021/10/22 08:03:14;;;;;;;10.07;2.17;;;;;;;8.80;91.99;101636.56;4997968;28;20387;-93
2021/10/22 08:05:40;;;;;;;6.32;1.60;;;;;;;8.91;91.84;101656.16;5014394;28;20037;-94
2021/10/22 08:08:06;;;;;;;6.88;1.40;;;;;;;8.95;91.50;101661.13;4999695;28;20048;-94
2021/10/22 08:10:32;;;;;;;17.23;2.10;;;;;;;8.90;91.07;101641.91;5027280;28;20033;-93
2021/10/22 08:12:59;;;;;;;6.65;1.52;;;;;;;9.27;88.87;101662.59;5031813;28;20040;-92
2021/10/22 08:15:57;;;;;;;;;;;;;;;;;;;;;
2021/10/22 08:18:44;;;;;;;8.27;1.65;;;;;;;9.36;87.21;101640.25;5045048;28;20397;-94
2021/10/22 08:23:58;;;;;;;4.68;2.22;;;;;;;9.61;86.21;101667.44;5016464;28;20041;-93
2021/10/22 08:26:24;;;;;;;5.70;1.73;;;;;;;9.65;85.91;101675.03;5018413;28;20121;-93
2021/10/22 08:28:50;;;;;;;5.10;1.70;;;;;;;9.56;85.70;101659.84;5024647;28;20159;-94
2021/10/22 08:31:18;;;;;;;4.70;2.30;;;;;;;9.74;85.25;101685.91;5012062;28;20065;-96
2021/10/22 08:33:44;;;;;;;4.85;2.40;;;;;;;9.63;85.21;101666.31;5013411;28;20545;-93
2021/10/22 08:36:13;;;;;;;4.57;2.10;;;;;;;9.76;85.27;101700.03;5000966;28;20033;-93
2021/10/22 08:38:40;;;;;;;229.30;107.88;;;;;;;9.74;85.47;101699.31;5014775;28;20059;-93
2021/10/22 08:41:13;;;;;;;1999.90;999.90;;;;;;;9.60;85.03;101668.44;5001512;28;20184;-93
2021/10/22 08:43:40;;;;;;;1999.90;999.90;;;;;;;9.79;84.91;101699.72;4999052;28;20095;-93
2021/10/22 08:46:11;;;;;;;49.55;14.07;;;;;;;9.71;85.22;101684.34;5016734;28;20120;-92
2021/10/22 08:48:37;;;;;;;3.88;1.27;;;;;;;9.79;85.01;101687.16;4997722;28;20022;-93
2021/10/22 08:51:06;;;;;;;3.72;2.80;;;;;;;9.81;85.29;101681.63;5007394;28;20416;-92
2021/10/22 08:53:36;;;;;;;7.55;2.10;;;;;;;10.07;84.97;101714.03;5030416;28;20029;-92
2021/10/22 08:56:03;;;;;;;4.93;1.90;;;;;;;10.00;84.57;101708.44;5026733;28;20042;-92
2021/10/22 08:58:32;;;;;;;11.18;2.53;;;;;;;10.00;84.37;101683.38;5027399;28;20045;-92
2021/10/22 09:00:58;;;;;;;7.95;2.33;;;;;;;10.02;84.45;101682.22;5025224;28;20441;-92
2021/10/22 09:03:25;;;;;;;6.85;2.10;;;;;;;10.19;84.12;101706.59;5011310;28;20034;-92
2021/10/22 09:06:03;;;;;;;7.85;2.70;;;;;;;10.24;84.23;101704.31;5010472;28;20076;-92
2021/10/22 09:08:40;;;;;;;6.05;1.90;;;;;;;10.33;84.28;101723.13;4994396;28;20647;-91
2021/10/22 09:11:33;;;;;;;4.85;1.90;;;;;;;10.23;83.79;101706.16;5000263;28;20033;-93
2021/10/22 09:14:17;;;;;;;8.07;1.80;;;;;;;10.40;83.95;101727.88;5006574;28;20395;-93
2021/10/22 09:16:50;;;;;;;5.65;1.95;;;;;;;10.28;83.75;101711.97;5014954;28;20033;-93
2021/10/22 09:19:35;;;;;;;7.90;1.70;;;;;;;10.42;83.49;101717.81;5002645;28;20037;-93
2021/10/22 09:22:21;;;;;;;8.57;3.72;;;;;;;10.74;82.74;101745.09;5009058;28;20517;-93
2021/10/22 09:24:56;;;;;;;6.07;3.40;;;;;;;11.01;82.03;101751.38;4997424;28;20037;-93
2021/10/22 09:27:44;;;;;;;13.25;3.55;;;;;;;11.21;80.85;101752.88;5030884;28;20025;-93
2021/10/22 09:30:37;;;;;;;7.68;2.60;;;;;;;11.21;80.01;101741.28;5021406;28;20045;-93
2021/10/22 09:33:22;;;;;;;11.52;2.65;;;;;;;11.38;80.07;101755.75;5011849;28;20072;-93
2021/10/22 09:35:56;;;;;;;7.05;1.90;;;;;;;11.35;78.93;101761.41;5012606;28;20376;-92
2021/10/22 09:38:26;;;;;;;8.73;1.60;;;;;;;11.27;78.78;101772.97;5008059;28;20123;-93
2021/10/22 09:40:54;;;;;;;7.47;1.23;;;;;;;11.30;79.55;101777.19;5001537;28;20483;-92
2021/10/22 09:43:30;;;;;;;5.78;1.40;;;;;;;11.32;79.91;101776.03;5030983;28;20026;-94
2021/10/22 09:46:16;;;;;;;6.63;1.40;;;;;;;11.11;80.77;101757.50;5017944;28;20124;-93
2021/10/22 09:48:46;;;;;;;6.78;1.70;;;;;;;11.02;80.98;101744.16;5031548;28;20134;-94
2021/10/22 09:51:33;;;;;;;2.17;1.13;;;;;;;11.15;80.65;101752.69;5009495;28;20029;-93
2021/10/22 09:54:10;;;;;;;13.60;1.83;;;;;;;11.39;80.63;101769.03;5034564;28;20087;-94
2021/10/22 09:56:43;;;;;;;5.18;1.30;;;;;;;11.58;80.22;101777.91;5010996;28;20038;-91
2021/10/22 09:59:11;;;;;;;8.35;1.85;;;;;;;11.62;79.68;101774.75;5011112;28;20072;-90
2021/10/22 10:01:44;;;;;;;7.88;1.70;;;;;;;11.53;79.82;101778.38;4998012;28;20085;-92
2021/10/22 10:04:12;;;;;;;4.75;1.40;;;;;;;11.33;80.13;101775.03;5013288;28;20075;-90
2021/10/22 10:06:39;;;;;;;7.15;3.45;;;;;;;11.28;80.19;101761.22;5023149;28;20104;-91
2021/10/22 10:09:08;;;;;;;9.02;1.60;;;;;;;11.56;79.67;101788.00;5005911;28;20045;-91
2021/10/22 10:11:44;;;;;;;4.68;1.85;;;;;;;11.59;78.41;101769.69;5027244;28;20151;-91
2021/10/22 10:14:14;;;;;;;5.97;1.17;;;;;;;11.84;77.90;101773.38;5013652;28;20040;-90
2021/10/22 10:16:41;;;;;;;10.23;3.10;;;;;;;11.94;77.55;101767.06;5015743;28;20033;-92
2021/10/22 10:19:19;;;;;;;4.93;1.73;;;;;;;12.18;76.27;101794.16;4990978;28;20419;-91
2021/10/22 10:22:09;;;;;;;6.30;2.00;;;;;;;12.03;75.30;101771.50;5027798;28;20038;-93
2021/10/22 10:24:38;;;;;;;9.75;3.40;;;;;;;12.16;75.88;101798.00;5008813;28;20087;-90
2021/10/22 10:27:04;;;;;;;6.20;2.15;;;;;;;11.99;76.28;101773.69;5015680;28;20398;-91
2021/10/22 10:29:33;;;;;;;5.80;1.67;;;;;;;12.14;75.68;101803.56;5033309;28;20036;-89
2021/10/22 10:32:10;;;;;;;7.35;1.75;;;;;;;12.16;75.56;101785.38;4999710;28;20495;-91
2021/10/22 10:34:47;;;;;;;10.27;1.65;;;;;;;12.22;74.95;101779.31;5017882;28;20038;-93
2021/10/22 10:37:24;;;;;;;5.68;1.40;;;;;;;12.48;73.95;101802.69;5031054;28;20037;-92
2021/10/22 10:39:56;;;;;;;2.65;1.33;;;;;;;12.44;72.60;101798.66;5048635;28;20037;-90
2021/10/22 10:42:29;;;;;;;4.38;1.52;;;;;;;12.17;73.31;101787.09;5019547;28;20491;-91
2021/10/22 10:44:57;;;;;;;7.80;1.40;;;;;;;12.18;73.92;101806.78;5050224;28;20076;-89
2021/10/22 10:47:36;;;;;;;6.60;1.42;;;;;;;12.26;73.31;101793.34;4997169;28;20635;-91
2021/10/22 10:50:03;;;;;;;5.65;2.35;;;;;;;12.31;71.47;101797.25;5012882;28;20033;-90
2021/10/22 10:52:40;;;;;;;9.30;1.90;;;;;;;12.36;71.55;101798.59;5032633;28;20041;-89
2021/10/22 10:55:12;;;;;;;9.27;2.10;;;;;;;12.56;70.75;101791.94;5032602;28;20041;-89
2021/10/22 10:57:49;;;;;;;7.47;1.55;;;;;;;12.73;70.46;101799.09;5031317;28;20478;-90
2021/10/22 11:00:22;;;;;;;7.25;1.52;;;;;;;12.79;70.45;101807.53;5000958;28;20056;-89
2021/10/22 11:03:22;;;;;;;9.13;1.60;;;;;;;12.58;70.32;101789.94;5015181;28;20443;-89
2021/10/22 11:05:52;;;;;;;94.38;90.57;;;;;;;12.64;70.53;101807.31;5015725;28;20072;-90
2021/10/22 11:08:29;;;;;;;3.03;1.20;;;;;;;12.49;70.82;101804.38;5037598;28;20086;-90
2021/10/22 11:11:26;;;;;;;4.72;1.60;;;;;;;12.53;71.18;101819.25;5027667;28;20037;-91
2021/10/22 11:14:00;;;;;;;4.93;1.50;;;;;;;12.35;71.67;101803.16;5047009;28;20033;-91
2021/10/22 11:16:51;;;;;;;8.93;2.20;;;;;;;12.18;72.46;101794.16;5038256;28;20041;-90
2021/10/22 11:19:46;;;;;;;9.93;1.40;;;;;;;12.23;73.03;101815.25;5015350;28;20077;-90
2021/10/22 11:22:22;;;;;;;7.93;1.70;;;;;;;12.19;73.38;101822.78;5015616;28;20509;-90
2021/10/22 11:24:49;;;;;;;7.07;1.42;;;;;;;11.97;73.87;101791.00;5016565;28;20079;-89
2021/10/22 11:27:17;;;;;;;4.60;1.20;;;;;;;12.16;74.30;101819.59;5011373;28;20038;-90
2021/10/22 11:29:50;;;;;;;5.47;1.33;;;;;;;12.22;74.73;101802.75;5035764;28;20534;-89
2021/10/22 11:32:18;;;;;;;4.40;1.70;;;;;;;12.28;74.25;101792.19;5015519;28;20203;-90
2021/10/22 11:34:53;;;;;;;5.90;1.10;;;;;;;12.42;73.43;101809.59;5004536;28;20055;-92